Terminal Aerodrome Forecast
Issued by NWS Mt. Holly, NJ

Home | Current Version | Previous Version | Text Only | Print | Product List | Glossary On
Versions: 1 2 3 4 5 6 7 8 9 10 11 12 13
000
FTUS41 KPHI 031128
TAFRDG
TAF
KRDG 031128Z 0312/0412 VRB02KT P6SM SKC
     FM031400 22006KT P6SM SCT250
     FM031600 22010G18KT P6SM SCT050
     FM032200 20006KT P6SM FEW050 BKN200
     FM040300 VRB02KT P6SM FEW050 BKN100=

USA.gov is the U.S. government's official web portal to all federal, state and local government web resources and services.